sensor_id;sensor_type;location;lat;lon;timestamp;P1;durP1;ratioP1;P2;durP2;ratioP2
53775;SDS011;44276;49.534;6.378;2022-10-17T00:01:09;35.90;;;16.83;;
53775;SDS011;44276;49.534;6.378;2022-10-17T00:03:38;33.78;;;16.35;;
53775;SDS011;44276;49.534;6.378;2022-10-17T00:06:08;35.60;;;17.85;;
53775;SDS011;44276;49.534;6.378;2022-10-17T00:08:41;37.78;;;17.52;;
53775;SDS011;44276;49.534;6.378;2022-10-17T00:11:13;35.25;;;17.15;;
53775;SDS011;44276;49.534;6.378;2022-10-17T00:13:44;44.83;;;18.80;;
53775;SDS011;44276;49.534;6.378;2022-10-17T00:16:15;36.75;;;17.95;;
53775;SDS011;44276;49.534;6.378;2022-10-17T00:18:50;33.85;;;17.70;;
53775;SDS011;44276;49.534;6.378;2022-10-17T00:21:19;37.85;;;18.95;;
53775;SDS011;44276;49.534;6.378;2022-10-17T00:23:50;41.22;;;17.95;;
53775;SDS011;44276;49.534;6.378;2022-10-17T00:26:20;39.10;;;17.60;;
53775;SDS011;44276;49.534;6.378;2022-10-17T00:28:49;37.10;;;16.80;;
53775;SDS011;44276;49.534;6.378;2022-10-17T00:31:19;38.90;;;18.27;;
53775;SDS011;44276;49.534;6.378;2022-10-17T00:33:50;35.38;;;17.50;;
53775;SDS011;44276;49.534;6.378;2022-10-17T00:36:20;43.33;;;19.15;;
53775;SDS011;44276;49.534;6.378;2022-10-17T00:38:52;34.05;;;16.48;;
53775;SDS011;44276;49.534;6.378;2022-10-17T00:41:24;40.22;;;18.63;;
53775;SDS011;44276;49.534;6.378;2022-10-17T00:43:57;35.55;;;16.73;;
53775;SDS011;44276;49.534;6.378;2022-10-17T00:46:28;40.13;;;18.05;;
53775;SDS011;44276;49.534;6.378;2022-10-17T00:48:59;41.95;;;18.02;;
53775;SDS011;44276;49.534;6.378;2022-10-17T00:51:33;39.90;;;17.58;;
53775;SDS011;44276;49.534;6.378;2022-10-17T00:54:11;38.65;;;19.10;;
53775;SDS011;44276;49.534;6.378;2022-10-17T00:56:42;38.58;;;18.35;;
53775;SDS011;44276;49.534;6.378;2022-10-17T00:59:13;34.00;;;16.30;;
53775;SDS011;44276;49.534;6.378;2022-10-17T01:01:46;42.47;;;19.90;;
53775;SDS011;44276;49.534;6.378;2022-10-17T01:04:23;37.08;;;17.25;;
53775;SDS011;44276;49.534;6.378;2022-10-17T01:06:51;41.30;;;18.70;;
53775;SDS011;44276;49.534;6.378;2022-10-17T01:09:20;41.33;;;17.83;;
53775;SDS011;44276;49.534;6.378;2022-10-17T01:11:49;41.90;;;20.17;;
53775;SDS011;44276;49.534;6.378;2022-10-17T01:14:28;36.20;;;17.23;;
53775;SDS011;44276;49.534;6.378;2022-10-17T01:17:10;37.67;;;18.85;;
53775;SDS011;44276;49.534;6.378;2022-10-17T01:19:54;38.00;;;18.77;;
53775;SDS011;44276;49.534;6.378;2022-10-17T01:22:48;41.85;;;17.42;;
53775;SDS011;44276;49.534;6.378;2022-10-17T01:25:34;34.83;;;16.30;;
53775;SDS011;44276;49.534;6.378;2022-10-17T01:28:25;30.45;;;16.17;;
53775;SDS011;44276;49.534;6.378;2022-10-17T01:31:24;30.85;;;14.93;;
53775;SDS011;44276;49.534;6.378;2022-10-17T01:33:59;38.25;;;18.15;;
53775;SDS011;44276;49.534;6.378;2022-10-17T01:36:39;40.33;;;18.80;;
53775;SDS011;44276;49.534;6.378;2022-10-17T01:39:19;36.40;;;16.52;;
53775;SDS011;44276;49.534;6.378;2022-10-17T01:42:06;32.40;;;16.15;;
53775;SDS011;44276;49.534;6.378;2022-10-17T01:44:45;46.50;;;19.27;;
53775;SDS011;44276;49.534;6.378;2022-10-17T01:47:23;39.40;;;17.75;;
53775;SDS011;44276;49.534;6.378;2022-10-17T01:49:57;40.30;;;17.63;;
53775;SDS011;44276;49.534;6.378;2022-10-17T01:52:31;39.10;;;18.42;;
53775;SDS011;44276;49.534;6.378;2022-10-17T01:55:08;52.33;;;17.40;;
53775;SDS011;44276;49.534;6.378;2022-10-17T01:57:44;29.02;;;16.05;;
53775;SDS011;44276;49.534;6.378;2022-10-17T02:00:18;32.70;;;15.43;;
53775;SDS011;44276;49.534;6.378;2022-10-17T02:02:53;41.08;;;18.65;;
53775;SDS011;44276;49.534;6.378;2022-10-17T02:05:27;40.95;;;17.48;;
53775;SDS011;44276;49.534;6.378;2022-10-17T02:08:01;40.47;;;17.42;;
53775;SDS011;44276;49.534;6.378;2022-10-17T02:10:31;37.70;;;18.15;;
53775;SDS011;44276;49.534;6.378;2022-10-17T02:13:15;37.92;;;18.55;;
53775;SDS011;44276;49.534;6.378;2022-10-17T02:16:03;35.67;;;17.75;;
53775;SDS011;44276;49.534;6.378;2022-10-17T02:18:49;35.50;;;16.67;;
53775;SDS011;44276;49.534;6.378;2022-10-17T02:21:49;33.88;;;15.07;;
53775;SDS011;44276;49.534;6.378;2022-10-17T02:24:34;30.60;;;15.30;;
53775;SDS011;44276;49.534;6.378;2022-10-17T02:27:15;33.90;;;16.13;;
53775;SDS011;44276;49.534;6.378;2022-10-17T02:29:55;32.10;;;15.98;;
53775;SDS011;44276;49.534;6.378;2022-10-17T02:32:33;32.45;;;15.38;;
53775;SDS011;44276;49.534;6.378;2022-10-17T02:35:16;38.72;;;17.67;;
53775;SDS011;44276;49.534;6.378;2022-10-17T02:37:46;42.42;;;17.58;;
53775;SDS011;44276;49.534;6.378;2022-10-17T02:40:17;38.72;;;17.27;;
53775;SDS011;44276;49.534;6.378;2022-10-17T02:42:50;31.92;;;17.58;;
53775;SDS011;44276;49.534;6.378;2022-10-17T02:45:22;35.17;;;17.67;;
53775;SDS011;44276;49.534;6.378;2022-10-17T02:47:54;40.20;;;17.48;;
53775;SDS011;44276;49.534;6.378;2022-10-17T02:50:34;45.70;;;18.17;;
53775;SDS011;44276;49.534;6.378;2022-10-17T02:53:20;32.58;;;16.42;;
53775;SDS011;44276;49.534;6.378;2022-10-17T02:55:58;35.72;;;16.58;;
53775;SDS011;44276;49.534;6.378;2022-10-17T02:58:35;30.80;;;15.88;;
53775;SDS011;44276;49.534;6.378;2022-10-17T03:01:05;29.60;;;14.73;;
53775;SDS011;44276;49.534;6.378;2022-10-17T03:03:34;43.78;;;18.52;;
53775;SDS011;44276;49.534;6.378;2022-10-17T03:06:03;41.72;;;18.13;;
53775;SDS011;44276;49.534;6.378;2022-10-17T03:08:32;30.77;;;16.10;;
53775;SDS011;44276;49.534;6.378;2022-10-17T03:11:00;32.58;;;16.02;;
53775;SDS011;44276;49.534;6.378;2022-10-17T03:13:29;37.13;;;16.63;;
53775;SDS011;44276;49.534;6.378;2022-10-17T03:16:02;35.78;;;16.77;;
53775;SDS011;44276;49.534;6.378;2022-10-17T03:18:31;33.92;;;16.08;;
53775;SDS011;44276;49.534;6.378;2022-10-17T03:20:59;31.02;;;13.55;;
53775;SDS011;44276;49.534;6.378;2022-10-17T03:23:29;41.33;;;16.55;;
53775;SDS011;44276;49.534;6.378;2022-10-17T03:25:57;45.53;;;20.25;;
53775;SDS011;44276;49.534;6.378;2022-10-17T03:28:28;51.92;;;18.02;;
53775;SDS011;44276;49.534;6.378;2022-10-17T03:30:57;39.08;;;18.23;;
53775;SDS011;44276;49.534;6.378;2022-10-17T03:33:25;51.55;;;28.85;;
53775;SDS011;44276;49.534;6.378;2022-10-17T03:35:54;47.30;;;28.63;;
53775;SDS011;44276;49.534;6.378;2022-10-17T03:38:22;41.90;;;23.40;;
53775;SDS011;44276;49.534;6.378;2022-10-17T03:40:54;45.90;;;22.90;;
53775;SDS011;44276;49.534;6.378;2022-10-17T03:43:23;50.22;;;27.63;;
53775;SDS011;44276;49.534;6.378;2022-10-17T03:45:51;38.63;;;19.58;;
53775;SDS011;44276;49.534;6.378;2022-10-17T03:48:19;34.22;;;18.02;;
53775;SDS011;44276;49.534;6.378;2022-10-17T03:50:47;39.75;;;21.27;;
53775;SDS011;44276;49.534;6.378;2022-10-17T03:53:16;32.17;;;17.52;;
53775;SDS011;44276;49.534;6.378;2022-10-17T03:55:44;40.38;;;22.05;;
53775;SDS011;44276;49.534;6.378;2022-10-17T03:58:14;59.85;;;38.78;;
53775;SDS011;44276;49.534;6.378;2022-10-17T04:00:42;33.15;;;17.08;;
53775;SDS011;44276;49.534;6.378;2022-10-17T04:03:10;40.72;;;18.90;;
53775;SDS011;44276;49.534;6.378;2022-10-17T04:05:42;35.45;;;17.63;;
53775;SDS011;44276;49.534;6.378;2022-10-17T04:08:10;33.47;;;15.75;;
53775;SDS011;44276;49.534;6.378;2022-10-17T04:10:38;41.20;;;17.45;;
53775;SDS011;44276;49.534;6.378;2022-10-17T04:13:07;42.88;;;17.92;;
53775;SDS011;44276;49.534;6.378;2022-10-17T04:15:36;37.60;;;16.92;;
53775;SDS011;44276;49.534;6.378;2022-10-17T04:18:04;41.97;;;16.95;;
53775;SDS011;44276;49.534;6.378;2022-10-17T04:20:33;32.63;;;15.02;;
53775;SDS011;44276;49.534;6.378;2022-10-17T04:23:01;52.88;;;19.73;;
53775;SDS011;44276;49.534;6.378;2022-10-17T04:25:29;42.97;;;18.95;;
53775;SDS011;44276;49.534;6.378;2022-10-17T04:28:01;49.00;;;19.48;;
53775;SDS011;44276;49.534;6.378;2022-10-17T04:30:30;38.33;;;17.30;;
53775;SDS011;44276;49.534;6.378;2022-10-17T04:32:59;42.03;;;16.25;;
53775;SDS011;44276;49.534;6.378;2022-10-17T04:35:28;44.97;;;20.25;;
53775;SDS011;44276;49.534;6.378;2022-10-17T04:37:56;49.92;;;20.98;;
53775;SDS011;44276;49.534;6.378;2022-10-17T04:40:24;64.60;;;22.67;;
53775;SDS011;44276;49.534;6.378;2022-10-17T04:42:52;69.70;;;23.80;;
53775;SDS011;44276;49.534;6.378;2022-10-17T04:45:21;53.42;;;22.38;;
53775;SDS011;44276;49.534;6.378;2022-10-17T04:47:49;45.10;;;21.85;;
53775;SDS011;44276;49.534;6.378;2022-10-17T04:50:19;47.35;;;20.02;;
53775;SDS011;44276;49.534;6.378;2022-10-17T04:52:47;54.45;;;20.17;;
53775;SDS011;44276;49.534;6.378;2022-10-17T04:55:15;51.10;;;23.45;;
53775;SDS011;44276;49.534;6.378;2022-10-17T04:57:43;66.05;;;24.88;;
53775;SDS011;44276;49.534;6.378;2022-10-17T05:00:12;48.20;;;22.75;;
53775;SDS011;44276;49.534;6.378;2022-10-17T05:02:41;51.70;;;21.80;;
53775;SDS011;44276;49.534;6.378;2022-10-17T05:05:09;65.22;;;26.27;;
53775;SDS011;44276;49.534;6.378;2022-10-17T05:07:39;59.55;;;26.45;;
53775;SDS011;44276;49.534;6.378;2022-10-17T05:10:08;57.67;;;24.75;;
53775;SDS011;44276;49.534;6.378;2022-10-17T05:12:36;64.82;;;26.25;;
53775;SDS011;44276;49.534;6.378;2022-10-17T05:15:05;58.05;;;24.70;;
53775;SDS011;44276;49.534;6.378;2022-10-17T05:17:34;61.80;;;25.25;;
53775;SDS011;44276;49.534;6.378;2022-10-17T05:20:03;59.13;;;23.10;;
53775;SDS011;44276;49.534;6.378;2022-10-17T05:22:32;60.83;;;23.73;;
53775;SDS011;44276;49.534;6.378;2022-10-17T05:25:08;56.22;;;22.55;;
53775;SDS011;44276;49.534;6.378;2022-10-17T05:27:36;55.50;;;24.25;;
53775;SDS011;44276;49.534;6.378;2022-10-17T05:30:05;52.05;;;22.55;;
53775;SDS011;44276;49.534;6.378;2022-10-17T05:32:35;57.08;;;24.35;;
53775;SDS011;44276;49.534;6.378;2022-10-17T05:35:03;62.00;;;22.88;;
53775;SDS011;44276;49.534;6.378;2022-10-17T05:37:33;43.40;;;18.25;;
53775;SDS011;44276;49.534;6.378;2022-10-17T05:40:01;65.43;;;22.75;;
53775;SDS011;44276;49.534;6.378;2022-10-17T05:42:32;57.72;;;22.08;;
53775;SDS011;44276;49.534;6.378;2022-10-17T05:45:00;50.47;;;19.60;;
53775;SDS011;44276;49.534;6.378;2022-10-17T05:47:28;64.00;;;22.55;;
53775;SDS011;44276;49.534;6.378;2022-10-17T05:49:57;79.55;;;28.23;;
53775;SDS011;44276;49.534;6.378;2022-10-17T05:52:25;80.35;;;28.17;;
53775;SDS011;44276;49.534;6.378;2022-10-17T05:54:54;82.57;;;29.45;;
53775;SDS011;44276;49.534;6.378;2022-10-17T05:57:24;71.90;;;24.13;;
53775;SDS011;44276;49.534;6.378;2022-10-17T05:59:54;71.32;;;25.38;;
53775;SDS011;44276;49.534;6.378;2022-10-17T06:02:22;81.93;;;25.15;;
53775;SDS011;44276;49.534;6.378;2022-10-17T06:04:51;61.38;;;23.90;;
53775;SDS011;44276;49.534;6.378;2022-10-17T06:07:19;59.20;;;22.83;;
53775;SDS011;44276;49.534;6.378;2022-10-17T06:09:48;62.35;;;24.38;;
53775;SDS011;44276;49.534;6.378;2022-10-17T06:12:16;59.97;;;24.17;;
53775;SDS011;44276;49.534;6.378;2022-10-17T06:14:44;57.90;;;23.38;;
53775;SDS011;44276;49.534;6.378;2022-10-17T06:17:14;63.15;;;25.17;;
53775;SDS011;44276;49.534;6.378;2022-10-17T06:19:42;70.95;;;28.13;;
53775;SDS011;44276;49.534;6.378;2022-10-17T06:22:10;65.00;;;27.10;;
53775;SDS011;44276;49.534;6.378;2022-10-17T06:24:39;77.45;;;26.83;;
53775;SDS011;44276;49.534;6.378;2022-10-17T06:27:08;62.30;;;26.73;;
53775;SDS011;44276;49.534;6.378;2022-10-17T06:29:37;52.50;;;24.80;;
53775;SDS011;44276;49.534;6.378;2022-10-17T06:32:05;57.28;;;23.33;;
53775;SDS011;44276;49.534;6.378;2022-10-17T06:34:41;73.07;;;25.75;;
53775;SDS011;44276;49.534;6.378;2022-10-17T06:37:10;66.07;;;27.88;;
53775;SDS011;44276;49.534;6.378;2022-10-17T06:39:38;58.28;;;25.30;;
53775;SDS011;44276;49.534;6.378;2022-10-17T06:42:06;54.28;;;23.17;;
53775;SDS011;44276;49.534;6.378;2022-10-17T06:44:35;69.35;;;28.83;;
53775;SDS011;44276;49.534;6.378;2022-10-17T06:47:03;69.15;;;26.35;;
53775;SDS011;44276;49.534;6.378;2022-10-17T06:49:31;64.25;;;26.15;;
53775;SDS011;44276;49.534;6.378;2022-10-17T06:52:01;61.20;;;26.10;;
53775;SDS011;44276;49.534;6.378;2022-10-17T06:54:29;70.30;;;29.25;;
53775;SDS011;44276;49.534;6.378;2022-10-17T06:56:58;69.35;;;31.20;;
53775;SDS011;44276;49.534;6.378;2022-10-17T06:59:26;70.07;;;30.23;;
53775;SDS011;44276;49.534;6.378;2022-10-17T07:01:55;67.75;;;29.25;;
53775;SDS011;44276;49.534;6.378;2022-10-17T07:04:23;56.97;;;26.60;;
53775;SDS011;44276;49.534;6.378;2022-10-17T07:06:52;64.85;;;28.10;;
53775;SDS011;44276;49.534;6.378;2022-10-17T07:09:23;65.03;;;27.13;;
53775;SDS011;44276;49.534;6.378;2022-10-17T07:11:53;60.90;;;27.45;;
53775;SDS011;44276;49.534;6.378;2022-10-17T07:14:27;67.13;;;28.10;;
53775;SDS011;44276;49.534;6.378;2022-10-17T07:16:58;70.93;;;29.73;;
53775;SDS011;44276;49.534;6.378;2022-10-17T07:19:28;62.83;;;28.42;;
53775;SDS011;44276;49.534;6.378;2022-10-17T07:21:57;62.72;;;29.77;;
53775;SDS011;44276;49.534;6.378;2022-10-17T07:24:35;65.28;;;26.90;;
53775;SDS011;44276;49.534;6.378;2022-10-17T07:27:03;65.90;;;29.40;;
53775;SDS011;44276;49.534;6.378;2022-10-17T07:29:50;53.08;;;24.08;;
53775;SDS011;44276;49.534;6.378;2022-10-17T07:32:18;51.90;;;27.10;;
53775;SDS011;44276;49.534;6.378;2022-10-17T07:34:46;51.90;;;23.75;;
53775;SDS011;44276;49.534;6.378;2022-10-17T07:37:15;44.72;;;22.42;;
53775;SDS011;44276;49.534;6.378;2022-10-17T07:39:44;40.38;;;20.67;;
53775;SDS011;44276;49.534;6.378;2022-10-17T07:42:13;39.83;;;22.60;;
53775;SDS011;44276;49.534;6.378;2022-10-17T07:44:41;38.28;;;21.23;;
53775;SDS011;44276;49.534;6.378;2022-10-17T07:47:12;27.02;;;18.10;;
53775;SDS011;44276;49.534;6.378;2022-10-17T07:49:41;25.67;;;16.52;;
53775;SDS011;44276;49.534;6.378;2022-10-17T07:52:10;18.88;;;12.10;;
53775;SDS011;44276;49.534;6.378;2022-10-17T07:54:40;11.27;;;9.23;;
53775;SDS011;44276;49.534;6.378;2022-10-17T07:57:10;11.80;;;6.95;;
53775;SDS011;44276;49.534;6.378;2022-10-17T07:59:38;8.20;;;4.97;;
53775;SDS011;44276;49.534;6.378;2022-10-17T08:02:07;4.68;;;3.05;;
53775;SDS011;44276;49.534;6.378;2022-10-17T08:04:44;6.53;;;3.53;;
53775;SDS011;44276;49.534;6.378;2022-10-17T08:07:12;10.88;;;3.67;;
53775;SDS011;44276;49.534;6.378;2022-10-17T08:12:18;7.38;;;2.47;;
53775;SDS011;44276;49.534;6.378;2022-10-17T08:14:47;6.22;;;2.55;;
53775;SDS011;44276;49.534;6.378;2022-10-17T08:17:15;8.13;;;2.95;;
53775;SDS011;44276;49.534;6.378;2022-10-17T08:19:43;8.73;;;2.80;;
53775;SDS011;44276;49.534;6.378;2022-10-17T08:22:12;4.93;;;2.30;;
53775;SDS011;44276;49.534;6.378;2022-10-17T08:24:40;3.88;;;1.92;;
53775;SDS011;44276;49.534;6.378;2022-10-17T08:27:10;2.55;;;2.22;;
53775;SDS011;44276;49.534;6.378;2022-10-17T08:29:41;4.43;;;2.42;;
53775;SDS011;44276;49.534;6.378;2022-10-17T08:32:14;4.68;;;2.60;;
53775;SDS011;44276;49.534;6.378;2022-10-17T08:34:43;3.28;;;2.15;;
53775;SDS011;44276;49.534;6.378;2022-10-17T08:37:11;5.05;;;2.78;;
53775;SDS011;44276;49.534;6.378;2022-10-17T08:39:40;3.22;;;1.95;;
53775;SDS011;44276;49.534;6.378;2022-10-17T08:42:17;6.32;;;2.65;;
53775;SDS011;44276;49.534;6.378;2022-10-17T08:45:14;9.38;;;1.88;;
53775;SDS011;44276;49.534;6.378;2022-10-17T08:47:51;3.03;;;2.20;;
53775;SDS011;44276;49.534;6.378;2022-10-17T08:50:28;2.58;;;1.67;;
53775;SDS011;44276;49.534;6.378;2022-10-17T08:53:05;3.42;;;1.60;;
53775;SDS011;44276;49.534;6.378;2022-10-17T08:55:43;6.32;;;1.98;;
53775;SDS011;44276;49.534;6.378;2022-10-17T08:58:16;3.67;;;1.23;;
53775;SDS011;44276;49.534;6.378;2022-10-17T09:00:51;3.92;;;1.75;;
53775;SDS011;44276;49.534;6.378;2022-10-17T09:03:44;4.32;;;1.70;;
53775;SDS011;44276;49.534;6.378;2022-10-17T09:06:33;4.10;;;2.20;;
53775;SDS011;44276;49.534;6.378;2022-10-17T09:09:13;2.53;;;2.08;;
53775;SDS011;44276;49.534;6.378;2022-10-17T09:12:01;5.30;;;2.05;;
53775;SDS011;44276;49.534;6.378;2022-10-17T09:14:49;4.10;;;1.70;;
53775;SDS011;44276;49.534;6.378;2022-10-17T09:17:44;5.35;;;1.70;;
53775;SDS011;44276;49.534;6.378;2022-10-17T09:20:20;4.32;;;1.70;;
53775;SDS011;44276;49.534;6.378;2022-10-17T09:22:54;5.35;;;2.00;;
53775;SDS011;44276;49.534;6.378;2022-10-17T09:25:26;3.15;;;1.80;;
53775;SDS011;44276;49.534;6.378;2022-10-17T09:28:01;2.75;;;1.60;;
53775;SDS011;44276;49.534;6.378;2022-10-17T09:30:41;2.53;;;1.67;;
53775;SDS011;44276;49.534;6.378;2022-10-17T09:33:15;3.10;;;1.45;;
53775;SDS011;44276;49.534;6.378;2022-10-17T09:36:08;5.28;;;1.33;;
53775;SDS011;44276;49.534;6.378;2022-10-17T09:38:42;5.30;;;1.60;;
53775;SDS011;44276;49.534;6.378;2022-10-17T09:41:17;3.10;;;1.50;;
53775;SDS011;44276;49.534;6.378;2022-10-17T09:44:11;2.97;;;1.38;;
53775;SDS011;44276;49.534;6.378;2022-10-17T09:46:48;7.80;;;2.05;;
53775;SDS011;44276;49.534;6.378;2022-10-17T09:49:33;2.20;;;1.75;;
53775;SDS011;44276;49.534;6.378;2022-10-17T09:52:07;3.72;;;1.85;;
53775;SDS011;44276;49.534;6.378;2022-10-17T09:54:43;13.48;;;1.85;;
53775;SDS011;44276;49.534;6.378;2022-10-17T09:57:14;19.38;;;2.15;;
53775;SDS011;44276;49.534;6.378;2022-10-17T09:59:45;3.35;;;1.38;;
53775;SDS011;44276;49.534;6.378;2022-10-17T10:02:22;4.03;;;1.35;;
53775;SDS011;44276;49.534;6.378;2022-10-17T10:04:55;3.47;;;1.88;;
53775;SDS011;44276;49.534;6.378;2022-10-17T10:07:32;8.70;;;2.13;;
53775;SDS011;44276;49.534;6.378;2022-10-17T10:10:05;3.15;;;1.40;;
53775;SDS011;44276;49.534;6.378;2022-10-17T10:13:03;6.63;;;1.70;;
53775;SDS011;44276;49.534;6.378;2022-10-17T10:15:42;9.15;;;1.75;;
53775;SDS011;44276;49.534;6.378;2022-10-17T10:18:25;7.13;;;1.92;;
53775;SDS011;44276;49.534;6.378;2022-10-17T10:21:17;3.63;;;2.20;;
53775;SDS011;44276;49.534;6.378;2022-10-17T10:26:37;2.47;;;1.48;;
53775;SDS011;44276;49.534;6.378;2022-10-17T10:29:18;10.73;;;1.80;;
53775;SDS011;44276;49.534;6.378;2022-10-17T10:31:54;6.68;;;2.03;;
53775;SDS011;44276;49.534;6.378;2022-10-17T10:34:25;3.92;;;2.00;;
53775;SDS011;44276;49.534;6.378;2022-10-17T10:37:00;5.28;;;1.45;;
53775;SDS011;44276;49.534;6.378;2022-10-17T10:39:36;3.50;;;1.48;;
53775;SDS011;44276;49.534;6.378;2022-10-17T10:42:19;4.45;;;1.73;;
53775;SDS011;44276;49.534;6.378;2022-10-17T10:44:54;4.03;;;1.52;;
53775;SDS011;44276;49.534;6.378;2022-10-17T10:47:28;2.88;;;1.42;;
53775;SDS011;44276;49.534;6.378;2022-10-17T10:53:12;3.55;;;1.83;;
53775;SDS011;44276;49.534;6.378;2022-10-17T10:56:02;5.63;;;1.45;;
53775;SDS011;44276;49.534;6.378;2022-10-17T10:58:39;2.72;;;1.88;;
53775;SDS011;44276;49.534;6.378;2022-10-17T11:01:21;2.88;;;1.42;;
53775;SDS011;44276;49.534;6.378;2022-10-17T11:06:58;4.72;;;2.03;;
53775;SDS011;44276;49.534;6.378;2022-10-17T11:09:35;4.30;;;1.77;;
53775;SDS011;44276;49.534;6.378;2022-10-17T11:12:17;10.20;;;2.05;;
53775;SDS011;44276;49.534;6.378;2022-10-17T11:14:53;4.20;;;2.15;;
53775;SDS011;44276;49.534;6.378;2022-10-17T11:17:31;3.17;;;1.67;;
53775;SDS011;44276;49.534;6.378;2022-10-17T11:20:10;2.33;;;1.52;;
53775;SDS011;44276;49.534;6.378;2022-10-17T11:22:48;3.20;;;1.60;;
53775;SDS011;44276;49.534;6.378;2022-10-17T11:25:32;7.03;;;2.40;;
53775;SDS011;44276;49.534;6.378;2022-10-17T11:28:03;8.45;;;1.65;;
53775;SDS011;44276;49.534;6.378;2022-10-17T11:30:41;2.97;;;2.35;;
53775;SDS011;44276;49.534;6.378;2022-10-17T11:33:23;4.93;;;2.22;;
53775;SDS011;44276;49.534;6.378;2022-10-17T11:35:58;6.50;;;2.65;;
53775;SDS011;44276;49.534;6.378;2022-10-17T11:38:38;6.68;;;1.67;;
53775;SDS011;44276;49.534;6.378;2022-10-17T11:41:17;6.00;;;1.65;;
53775;SDS011;44276;49.534;6.378;2022-10-17T11:43:52;2.63;;;1.13;;
53775;SDS011;44276;49.534;6.378;2022-10-17T11:46:26;7.28;;;1.88;;
53775;SDS011;44276;49.534;6.378;2022-10-17T11:49:03;5.60;;;2.38;;
53775;SDS011;44276;49.534;6.378;2022-10-17T11:51:48;3.45;;;1.40;;
53775;SDS011;44276;49.534;6.378;2022-10-17T11:54:29;2.80;;;1.70;;
53775;SDS011;44276;49.534;6.378;2022-10-17T11:57:18;5.00;;;1.60;;
53775;SDS011;44276;49.534;6.378;2022-10-17T12:00:26;3.20;;;1.50;;
53775;SDS011;44276;49.534;6.378;2022-10-17T12:03:17;2.92;;;1.13;;
53775;SDS011;44276;49.534;6.378;2022-10-17T12:06:12;3.55;;;1.40;;
53775;SDS011;44276;49.534;6.378;2022-10-17T12:08:57;9.82;;;1.60;;
53775;SDS011;44276;49.534;6.378;2022-10-17T12:11:39;6.20;;;1.40;;
53775;SDS011;44276;49.534;6.378;2022-10-17T12:14:37;7.53;;;1.30;;
53775;SDS011;44276;49.534;6.378;2022-10-17T12:20:25;2.25;;;1.52;;
53775;SDS011;44276;49.534;6.378;2022-10-17T12:23:03;3.90;;;1.27;;
53775;SDS011;44276;49.534;6.378;2022-10-17T12:25:53;9.90;;;1.63;;
53775;SDS011;44276;49.534;6.378;2022-10-17T12:28:30;5.72;;;2.13;;
53775;SDS011;44276;49.534;6.378;2022-10-17T12:31:09;7.10;;;1.60;;
53775;SDS011;44276;49.534;6.378;2022-10-17T12:33:59;13.98;;;1.98;;
53775;SDS011;44276;49.534;6.378;2022-10-17T12:51:27;3.45;;;1.88;;
53775;SDS011;44276;49.534;6.378;2022-10-17T12:54:06;7.15;;;1.95;;
53775;SDS011;44276;49.534;6.378;2022-10-17T12:56:39;7.30;;;1.40;;
53775;SDS011;44276;49.534;6.378;2022-10-17T12:59:12;4.75;;;1.30;;
53775;SDS011;44276;49.534;6.378;2022-10-17T13:01:45;9.40;;;2.45;;
53775;SDS011;44276;49.534;6.378;2022-10-17T13:04:18;6.55;;;2.22;;
53775;SDS011;44276;49.534;6.378;2022-10-17T13:06:47;6.18;;;1.40;;
53775;SDS011;44276;49.534;6.378;2022-10-17T13:09:23;7.10;;;2.53;;
53775;SDS011;44276;49.534;6.378;2022-10-17T13:11:55;3.75;;;1.80;;
53775;SDS011;44276;49.534;6.378;2022-10-17T13:14:27;6.07;;;2.63;;
53775;SDS011;44276;49.534;6.378;2022-10-17T13:17:00;5.78;;;1.25;;
53775;SDS011;44276;49.534;6.378;2022-10-17T13:19:38;13.05;;;1.98;;
53775;SDS011;44276;49.534;6.378;2022-10-17T13:22:12;5.53;;;1.73;;
53775;SDS011;44276;49.534;6.378;2022-10-17T13:24:44;22.17;;;2.95;;
53775;SDS011;44276;49.534;6.378;2022-10-17T13:27:21;10.25;;;2.15;;
53775;SDS011;44276;49.534;6.378;2022-10-17T13:29:55;4.00;;;1.50;;
53775;SDS011;44276;49.534;6.378;2022-10-17T13:32:33;6.35;;;1.73;;
53775;SDS011;44276;49.534;6.378;2022-10-17T13:35:05;5.78;;;1.85;;
53775;SDS011;44276;49.534;6.378;2022-10-17T13:37:36;6.20;;;1.67;;
53775;SDS011;44276;49.534;6.378;2022-10-17T13:40:14;9.00;;;2.03;;
53775;SDS011;44276;49.534;6.378;2022-10-17T13:43:04;4.87;;;1.77;;
53775;SDS011;44276;49.534;6.378;2022-10-17T13:45:44;2.83;;;2.40;;
53775;SDS011;44276;49.534;6.378;2022-10-17T13:48:17;3.85;;;1.52;;
53775;SDS011;44276;49.534;6.378;2022-10-17T13:50:50;4.75;;;2.05;;
53775;SDS011;44276;49.534;6.378;2022-10-17T13:53:29;5.47;;;1.75;;
53775;SDS011;44276;49.534;6.378;2022-10-17T13:55:59;6.68;;;1.98;;
53775;SDS011;44276;49.534;6.378;2022-10-17T13:58:51;6.60;;;2.25;;
53775;SDS011;44276;49.534;6.378;2022-10-17T14:01:23;7.30;;;2.13;;
53775;SDS011;44276;49.534;6.378;2022-10-17T14:03:53;7.85;;;2.20;;
53775;SDS011;44276;49.534;6.378;2022-10-17T14:06:35;4.82;;;2.10;;
53775;SDS011;44276;49.534;6.378;2022-10-17T14:09:16;5.50;;;1.83;;
53775;SDS011;44276;49.534;6.378;2022-10-17T14:11:55;7.75;;;2.08;;
53775;SDS011;44276;49.534;6.378;2022-10-17T14:14:27;5.05;;;2.15;;
53775;SDS011;44276;49.534;6.378;2022-10-17T14:17:16;12.60;;;2.35;;
53775;SDS011;44276;49.534;6.378;2022-10-17T14:19:54;4.78;;;2.22;;
53775;SDS011;44276;49.534;6.378;2022-10-17T14:22:49;6.25;;;1.55;;
53775;SDS011;44276;49.534;6.378;2022-10-17T14:25:38;5.38;;;2.08;;
53775;SDS011;44276;49.534;6.378;2022-10-17T14:28:12;4.43;;;2.13;;
53775;SDS011;44276;49.534;6.378;2022-10-17T14:30:44;3.83;;;1.37;;
53775;SDS011;44276;49.534;6.378;2022-10-17T14:33:23;4.40;;;2.00;;
53775;SDS011;44276;49.534;6.378;2022-10-17T14:35:56;11.75;;;2.53;;
53775;SDS011;44276;49.534;6.378;2022-10-17T14:38:29;4.80;;;1.80;;
53775;SDS011;44276;49.534;6.378;2022-10-17T14:40:58;8.75;;;1.98;;
53775;SDS011;44276;49.534;6.378;2022-10-17T14:43:51;4.88;;;2.30;;
53775;SDS011;44276;49.534;6.378;2022-10-17T14:46:22;3.60;;;2.15;;
53775;SDS011;44276;49.534;6.378;2022-10-17T14:48:52;5.40;;;2.08;;
53775;SDS011;44276;49.534;6.378;2022-10-17T14:51:25;6.13;;;2.15;;
53775;SDS011;44276;49.534;6.378;2022-10-17T14:54:16;9.95;;;2.63;;
53775;SDS011;44276;49.534;6.378;2022-10-17T14:56:51;11.27;;;2.28;;
53775;SDS011;44276;49.534;6.378;2022-10-17T14:59:21;3.78;;;2.00;;
53775;SDS011;44276;49.534;6.378;2022-10-17T15:02:11;11.75;;;2.17;;
53775;SDS011;44276;49.534;6.378;2022-10-17T15:04:40;9.77;;;2.13;;
53775;SDS011;44276;49.534;6.378;2022-10-17T15:07:09;4.70;;;2.53;;
53775;SDS011;44276;49.534;6.378;2022-10-17T15:09:43;8.82;;;2.55;;
53775;SDS011;44276;49.534;6.378;2022-10-17T15:12:15;18.88;;;2.58;;
53775;SDS011;44276;49.534;6.378;2022-10-17T15:14:45;8.07;;;3.22;;
53775;SDS011;44276;49.534;6.378;2022-10-17T15:17:14;4.80;;;3.38;;
53775;SDS011;44276;49.534;6.378;2022-10-17T15:19:46;7.60;;;2.83;;
53775;SDS011;44276;49.534;6.378;2022-10-17T15:22:15;4.25;;;2.63;;
53775;SDS011;44276;49.534;6.378;2022-10-17T15:24:45;4.97;;;2.80;;
53775;SDS011;44276;49.534;6.378;2022-10-17T15:27:14;6.70;;;2.72;;
53775;SDS011;44276;49.534;6.378;2022-10-17T15:29:45;4.75;;;2.75;;
53775;SDS011;44276;49.534;6.378;2022-10-17T15:32:14;8.55;;;2.60;;
53775;SDS011;44276;49.534;6.378;2022-10-17T15:34:43;6.10;;;2.65;;
53775;SDS011;44276;49.534;6.378;2022-10-17T15:37:13;4.30;;;2.85;;
53775;SDS011;44276;49.534;6.378;2022-10-17T15:39:48;7.03;;;2.42;;
53775;SDS011;44276;49.534;6.378;2022-10-17T15:42:20;9.57;;;3.10;;
53775;SDS011;44276;49.534;6.378;2022-10-17T15:44:52;5.53;;;3.20;;